createdAt,value
2023-02-24T00:00:38.577Z,100966.84
2023-02-24T00:03:11.723Z,100968.00
2023-02-24T00:05:44.579Z,100965.63
2023-02-24T00:08:14.014Z,100953.38
2023-02-24T00:10:42.285Z,100948.19
2023-02-24T00:13:12.195Z,100952.13
2023-02-24T00:15:40.329Z,100952.47
2023-02-24T00:18:09.410Z,100937.84
2023-02-24T00:20:37.474Z,100934.97
2023-02-24T00:23:05.545Z,100938.16
2023-02-24T00:25:35.118Z,100933.88
2023-02-24T00:28:03.820Z,100937.19
2023-02-24T00:30:33.246Z,100936.03
2023-02-24T00:33:04.033Z,100927.25
2023-02-24T00:35:32.255Z,100933.38
2023-02-24T00:38:01.085Z,100929.31
2023-02-24T00:40:30.922Z,100939.72
2023-02-24T00:43:00.398Z,100930.06
2023-02-24T00:45:31.032Z,100914.88
2023-02-24T00:47:59.456Z,100928.94
2023-02-24T00:50:27.625Z,100930.50
2023-02-24T00:52:55.673Z,100923.88
2023-02-24T00:55:23.917Z,100913.97
2023-02-24T00:57:52.087Z,100921.16
2023-02-24T01:00:23.515Z,100909.09
2023-02-24T01:02:51.568Z,100913.59
2023-02-24T01:05:20.087Z,100904.16
2023-02-24T01:07:48.133Z,100906.16
2023-02-24T01:10:18.488Z,100904.38
2023-02-24T01:12:54.034Z,100900.56
2023-02-24T01:15:24.384Z,100898.88
2023-02-24T01:17:52.486Z,100897.69
2023-02-24T01:20:20.848Z,100891.34
2023-02-24T01:22:51.005Z,100891.50
2023-02-24T01:25:20.876Z,100878.41
2023-02-24T01:27:49.705Z,100879.81
2023-02-24T01:30:18.884Z,100885.72
2023-02-24T01:32:49.152Z,100873.16
2023-02-24T01:35:18.120Z,100857.16
2023-02-24T01:37:46.554Z,100886.75
2023-02-24T01:40:21.484Z,100882.69
2023-02-24T01:42:50.658Z,100887.84
2023-02-24T01:45:22.863Z,100876.25
2023-02-24T01:47:53.490Z,100882.25
2023-02-24T01:50:26.439Z,100878.41
2023-02-24T01:52:59.063Z,100871.09
2023-02-24T01:55:32.243Z,100879.47
2023-02-24T01:58:05.030Z,100869.91
2023-02-24T02:00:37.839Z,100859.28
2023-02-24T02:03:13.330Z,100861.75
2023-02-24T02:05:45.465Z,100861.28
2023-02-24T02:08:15.127Z,100856.63
2023-02-24T02:10:45.521Z,100855.75
2023-02-24T02:13:15.888Z,100850.69
2023-02-24T02:15:53.883Z,100855.47
2023-02-24T02:18:33.661Z,100858.16
2023-02-24T02:21:24.945Z,100861.38
2023-02-24T02:24:00.653Z,100865.59
2023-02-24T02:26:53.783Z,100856.81
2023-02-24T02:29:38.125Z,100860.44
2023-02-24T02:32:32.331Z,100858.69
2023-02-24T02:35:09.531Z,100870.50
2023-02-24T02:37:46.245Z,100851.25
2023-02-24T02:40:23.469Z,100854.56
2023-02-24T02:42:59.417Z,100843.41
2023-02-24T02:45:33.467Z,100845.56
2023-02-24T02:48:06.617Z,100852.53
2023-02-24T02:50:43.497Z,100846.41
2023-02-24T02:53:15.845Z,100836.88
2023-02-24T02:55:48.664Z,100832.47
2023-02-24T02:58:23.658Z,100848.53
2023-02-24T03:01:02.776Z,100843.53
2023-02-24T03:03:33.836Z,100841.69
2023-02-24T03:06:06.684Z,100811.19
2023-02-24T03:08:38.863Z,100835.56
2023-02-24T03:11:10.953Z,100842.97
2023-02-24T03:13:42.673Z,100824.41
2023-02-24T03:16:14.008Z,100835.38
2023-02-24T03:18:51.049Z,100831.94
2023-02-24T03:21:33.110Z,100833.59
2023-02-24T03:24:05.819Z,100830.72
2023-02-24T03:26:41.983Z,100829.03
2023-02-24T03:29:17.594Z,100819.66
2023-02-24T03:31:49.217Z,100819.72
2023-02-24T03:34:21.885Z,100815.22
2023-02-24T03:36:53.268Z,100810.97
2023-02-24T03:39:22.135Z,100817.09
2023-02-24T03:41:56.918Z,100816.41
2023-02-24T03:44:25.664Z,100815.66
2023-02-24T03:46:55.845Z,100816.25
2023-02-24T03:49:25.506Z,100811.88
2023-02-24T03:52:08.893Z,100810.28
2023-02-24T03:55:06.380Z,100820.31
2023-02-24T03:57:55.025Z,100810.56
2023-02-24T04:00:34.407Z,100791.09
2023-02-24T04:03:15.416Z,100801.25
2023-02-24T04:05:48.602Z,100816.38
2023-02-24T04:08:20.681Z,100817.19
2023-02-24T04:10:54.510Z,100812.03
2023-02-24T04:13:35.439Z,100809.59
2023-02-24T04:16:11.367Z,100813.63
2023-02-24T04:18:41.668Z,100805.66
2023-02-24T04:21:09.919Z,100797.03
2023-02-24T04:23:43.782Z,100796.81
2023-02-24T04:26:17.288Z,100804.31
2023-02-24T04:28:48.645Z,100793.19
2023-02-24T04:31:21.249Z,100794.03
2023-02-24T04:33:50.590Z,100796.06
2023-02-24T04:36:19.199Z,100791.03
2023-02-24T04:38:49.820Z,100780.84
2023-02-24T04:41:21.963Z,100776.28
2023-02-24T04:43:51.145Z,100768.00
2023-02-24T04:46:19.719Z,100769.06
2023-02-24T04:48:48.481Z,100771.00
2023-02-24T04:51:16.976Z,100764.91
2023-02-24T04:53:45.311Z,100761.59
2023-02-24T04:56:14.807Z,100754.72
2023-02-24T04:58:45.465Z,100760.44
2023-02-24T05:01:13.691Z,100759.47
2023-02-24T05:03:43.671Z,100769.75
2023-02-24T05:06:18.132Z,100762.97
2023-02-24T05:08:46.575Z,100770.34
2023-02-24T05:11:18.610Z,100766.94
2023-02-24T05:13:47.272Z,100761.63
2023-02-24T05:16:17.646Z,100771.59
2023-02-24T05:18:46.001Z,100752.03
2023-02-24T05:21:32.854Z,100767.59
2023-02-24T05:24:06.949Z,100758.66
2023-02-24T05:26:37.572Z,100767.53
2023-02-24T05:29:07.331Z,100766.69
2023-02-24T05:31:37.206Z,100767.03
2023-02-24T05:34:07.812Z,100765.22
2023-02-24T05:36:39.110Z,100771.16
2023-02-24T05:39:08.152Z,100770.22
2023-02-24T05:41:41.382Z,100762.69
2023-02-24T05:44:12.795Z,100775.81
2023-02-24T05:46:42.198Z,100773.38
2023-02-24T05:49:14.801Z,100771.78
2023-02-24T05:51:54.870Z,100770.16
2023-02-24T05:54:25.958Z,100773.75
2023-02-24T05:56:57.105Z,100772.34
2023-02-24T05:59:25.480Z,100773.84
2023-02-24T06:01:54.341Z,100769.78
2023-02-24T06:04:39.401Z,100777.19
2023-02-24T06:07:13.011Z,100774.94
2023-02-24T06:09:42.962Z,100779.59
2023-02-24T06:12:14.932Z,100777.41
2023-02-24T06:14:45.163Z,100782.38
2023-02-24T06:17:15.220Z,100779.22
2023-02-24T06:19:43.853Z,100769.78
2023-02-24T06:22:14.992Z,100770.53
2023-02-24T06:24:44.492Z,100774.13
2023-02-24T06:27:18.011Z,100774.91
2023-02-24T06:29:49.942Z,100772.47
2023-02-24T06:32:19.132Z,100771.75
2023-02-24T06:34:47.561Z,100776.38
2023-02-24T06:37:16.691Z,100771.28
2023-02-24T06:39:44.988Z,100771.25
2023-02-24T06:42:15.032Z,100766.47
2023-02-24T06:44:43.233Z,100760.41
2023-02-24T06:47:14.266Z,100759.16
2023-02-24T06:49:43.055Z,100759.50
2023-02-24T06:52:18.690Z,100748.81
2023-02-24T06:54:49.113Z,100748.19
2023-02-24T06:57:20.515Z,100748.19
2023-02-24T06:59:49.118Z,100751.94
2023-02-24T07:02:18.081Z,100748.22
2023-02-24T07:04:46.605Z,100745.63
2023-02-24T07:07:17.542Z,100739.69
2023-02-24T07:09:46.174Z,100740.25
2023-02-24T07:12:21.129Z,100730.06
2023-02-24T07:14:51.370Z,100739.13
2023-02-24T07:17:21.049Z,100729.94
2023-02-24T07:19:49.010Z,100731.63
2023-02-24T07:22:25.265Z,100731.34
2023-02-24T07:25:00.596Z,100733.59
2023-02-24T07:27:28.883Z,100734.03
2023-02-24T07:29:59.351Z,100733.66
2023-02-24T07:32:28.115Z,100735.31
2023-02-24T07:34:56.091Z,100741.13
2023-02-24T07:37:24.520Z,100741.34
2023-02-24T07:39:52.969Z,100735.63
2023-02-24T07:42:21.385Z,100733.03
2023-02-24T07:44:49.641Z,100735.56
2023-02-24T07:47:19.022Z,100727.09
2023-02-24T07:49:47.037Z,100732.50
2023-02-24T07:52:16.301Z,100727.47
2023-02-24T07:54:44.437Z,100726.47
2023-02-24T07:57:14.406Z,100724.50
2023-02-24T07:59:47.795Z,100725.44
2023-02-24T08:02:16.609Z,100719.06
2023-02-24T08:04:50.508Z,100713.88
2023-02-24T08:07:25.008Z,100709.66
2023-02-24T08:10:14.603Z,100713.28
2023-02-24T08:12:47.690Z,100718.94
2023-02-24T08:15:22.303Z,100708.25
2023-02-24T08:17:50.442Z,100711.66
2023-02-24T08:20:25.208Z,100715.94
2023-02-24T08:22:54.553Z,100714.50
2023-02-24T08:25:24.343Z,100715.19
2023-02-24T08:28:07.254Z,100713.78
2023-02-24T08:30:40.302Z,100713.25
2023-02-24T08:33:11.057Z,100704.97
2023-02-24T08:35:45.003Z,100708.13
2023-02-24T08:38:20.189Z,100699.84
2023-02-24T08:40:51.602Z,100701.63
2023-02-24T08:43:33.066Z,100693.13
2023-02-24T08:46:04.520Z,100692.25
2023-02-24T08:48:38.374Z,100691.41
2023-02-24T08:51:24.450Z,100691.25
2023-02-24T08:53:54.667Z,100692.66
2023-02-24T08:56:27.923Z,100693.16
2023-02-24T08:59:05.773Z,100692.09
2023-02-24T09:01:36.154Z,100687.56
2023-02-24T09:04:07.412Z,100690.09
2023-02-24T09:06:44.298Z,100690.81
2023-02-24T09:09:21.431Z,100694.50
2023-02-24T09:11:56.123Z,100697.38
2023-02-24T09:14:28.569Z,100701.38
2023-02-24T09:17:06.449Z,100702.03
2023-02-24T09:20:01.850Z,100698.78
2023-02-24T09:22:32.234Z,100691.50
2023-02-24T09:25:24.218Z,100690.50
2023-02-24T09:27:57.214Z,100689.50
2023-02-24T09:30:38.333Z,100678.78
2023-02-24T09:33:22.511Z,100683.09
2023-02-24T09:36:09.709Z,100680.44
2023-02-24T09:39:10.907Z,100680.00
2023-02-24T09:41:56.717Z,100678.88
2023-02-24T09:44:29.969Z,100680.38
2023-02-24T09:47:09.269Z,100675.44
2023-02-24T09:49:48.802Z,100678.66
2023-02-24T09:52:19.422Z,100670.03
2023-02-24T09:55:08.358Z,100665.09
2023-02-24T09:58:02.388Z,100671.13
2023-02-24T10:00:35.067Z,100663.44
2023-02-24T10:03:19.767Z,100658.09
2023-02-24T10:05:59.157Z,100654.53
2023-02-24T10:08:34.067Z,100654.53
2023-02-24T10:11:08.632Z,100648.56
2023-02-24T10:13:42.883Z,100638.47
2023-02-24T10:16:13.182Z,100627.84
2023-02-24T10:18:48.457Z,100625.41
2023-02-24T10:21:30.940Z,100619.91
2023-02-24T10:24:15.608Z,100616.25
2023-02-24T10:27:00.813Z,100612.56
2023-02-24T10:29:55.637Z,100609.75
2023-02-24T10:32:34.134Z,100598.84
2023-02-24T10:35:03.556Z,100592.53
2023-02-24T10:37:31.648Z,100593.28
2023-02-24T10:40:01.239Z,100588.50
2023-02-24T10:42:34.462Z,100588.91
2023-02-24T10:45:17.972Z,100582.13
2023-02-24T10:47:57.135Z,100572.94
2023-02-24T10:50:28.119Z,100574.44
2023-02-24T10:53:26.616Z,100570.63
2023-02-24T10:56:15.201Z,100551.44
2023-02-24T10:58:56.915Z,100558.78
2023-02-24T11:01:43.591Z,100553.84
2023-02-24T11:04:33.595Z,100550.94
2023-02-24T11:07:09.797Z,100545.72
2023-02-24T11:09:44.196Z,100540.53
2023-02-24T11:12:38.335Z,100540.09
2023-02-24T11:15:36.959Z,100495.66
2023-02-24T11:18:07.031Z,100530.72
2023-02-24T11:20:48.622Z,100526.06
2023-02-24T11:23:20.535Z,100519.03
2023-02-24T11:25:53.651Z,100520.47
2023-02-24T11:28:44.665Z,100505.13
2023-02-24T11:31:29.700Z,100505.13
2023-02-24T11:34:05.528Z,100494.38
2023-02-24T11:36:43.509Z,100484.00
2023-02-24T11:39:36.514Z,100480.84
2023-02-24T11:42:11.422Z,100481.94
2023-02-24T11:44:49.286Z,100473.63
2023-02-24T11:47:23.320Z,100473.34
2023-02-24T11:49:55.331Z,100477.44
2023-02-24T11:52:31.062Z,100470.31
2023-02-24T11:55:01.076Z,100469.66
2023-02-24T11:57:37.745Z,100477.13
2023-02-24T12:00:13.469Z,100455.03
2023-02-24T12:02:51.279Z,100464.66
2023-02-24T12:05:22.512Z,100462.53
2023-02-24T12:07:53.724Z,100459.94
2023-02-24T12:10:25.334Z,100462.41
2023-02-24T12:13:05.238Z,100458.34
2023-02-24T12:15:39.185Z,100456.63
2023-02-24T12:18:17.877Z,100452.72
2023-02-24T12:20:50.342Z,100450.09
2023-02-24T12:23:24.364Z,100443.56
2023-02-24T12:26:06.349Z,100451.28
2023-02-24T12:28:57.835Z,100430.97
2023-02-24T12:31:37.660Z,100439.13
2023-02-24T12:34:14.569Z,100441.94
2023-02-24T12:37:01.061Z,100442.28
2023-02-24T12:39:32.306Z,100446.34
2023-02-24T12:42:08.856Z,100440.50
2023-02-24T12:44:48.125Z,100445.19
2023-02-24T12:47:23.982Z,100440.28
2023-02-24T12:50:09.123Z,100438.91
2023-02-24T12:52:48.992Z,100436.75
2023-02-24T12:55:24.796Z,100434.16
2023-02-24T12:58:01.231Z,100429.41
2023-02-24T13:00:38.004Z,100428.69
2023-02-24T13:03:20.902Z,100421.81
2023-02-24T13:06:01.150Z,100422.03
2023-02-24T13:08:42.412Z,100417.78
2023-02-24T13:11:19.694Z,100420.75
2023-02-24T13:13:56.498Z,100405.16
2023-02-24T13:16:31.616Z,100408.69
2023-02-24T13:19:20.278Z,100396.13
2023-02-24T13:22:09.825Z,100398.28
2023-02-24T13:24:38.921Z,100387.78
2023-02-24T13:27:17.428Z,100385.41
2023-02-24T13:29:47.027Z,100379.53
2023-02-24T13:32:33.622Z,100377.56
2023-02-24T13:35:04.162Z,100383.31
2023-02-24T13:37:36.743Z,100380.38
2023-02-24T13:40:24.018Z,100373.53
2023-02-24T13:43:01.560Z,100363.25
2023-02-24T13:45:31.776Z,100363.13
2023-02-24T13:48:41.756Z,100356.91
2023-02-24T13:51:26.494Z,100364.81
2023-02-24T13:54:08.603Z,100353.88
2023-02-24T13:56:44.874Z,100346.25
2023-02-24T13:59:40.621Z,100324.06
2023-02-24T14:02:16.740Z,100335.00
2023-02-24T14:04:50.233Z,100338.56
2023-02-24T14:07:22.570Z,100343.56
2023-02-24T14:09:55.402Z,100330.16
2023-02-24T14:12:28.785Z,100341.78
2023-02-24T14:14:57.646Z,100338.16
2023-02-24T14:17:28.864Z,100342.31
2023-02-24T14:20:09.064Z,100331.91
2023-02-24T14:22:44.819Z,100323.56
2023-02-24T14:25:15.879Z,100325.66
2023-02-24T14:27:45.814Z,100331.69
2023-02-24T14:30:25.287Z,100329.06
2023-02-24T14:32:53.876Z,100322.63
2023-02-24T14:35:34.308Z,100326.38
2023-02-24T14:38:02.648Z,100322.84
2023-02-24T14:40:32.330Z,100317.09
2023-02-24T14:43:00.503Z,100317.94
2023-02-24T14:45:30.988Z,100308.16
2023-02-24T14:47:59.092Z,100311.31
2023-02-24T14:50:31.341Z,100309.19
2023-02-24T14:53:03.667Z,100307.13
2023-02-24T14:55:37.211Z,100304.72
2023-02-24T14:58:12.888Z,100299.63
2023-02-24T15:00:47.111Z,100297.25
2023-02-24T15:03:21.170Z,100292.16
2023-02-24T15:05:51.268Z,100296.22
2023-02-24T15:08:32.677Z,100297.34
2023-02-24T15:11:07.877Z,100298.81
2023-02-24T15:13:39.408Z,100295.19
2023-02-24T15:16:13.756Z,100292.69
2023-02-24T15:18:42.537Z,100296.22
2023-02-24T15:21:22.422Z,100285.41
2023-02-24T15:23:51.178Z,100289.44
2023-02-24T15:26:28.737Z,100277.16
2023-02-24T15:29:02.036Z,100294.25
2023-02-24T15:31:31.398Z,100291.84
2023-02-24T15:34:01.621Z,100278.63
2023-02-24T15:36:33.316Z,100285.59
2023-02-24T15:39:05.112Z,100281.94
2023-02-24T15:41:42.561Z,100290.56
2023-02-24T15:44:26.444Z,100290.84
2023-02-24T15:46:54.982Z,100290.03
2023-02-24T15:49:22.996Z,100289.38
2023-02-24T15:51:53.001Z,100292.25
2023-02-24T15:54:29.292Z,100292.59
2023-02-24T15:57:00.793Z,100288.59
2023-02-24T15:59:29.518Z,100287.66
2023-02-24T16:01:57.662Z,100287.19
2023-02-24T16:04:27.641Z,100283.75
2023-02-24T16:06:59.050Z,100280.34
2023-02-24T16:09:33.620Z,100279.69
2023-02-24T16:12:06.875Z,100272.44
2023-02-24T16:14:35.207Z,100263.88
2023-02-24T16:17:08.956Z,100271.94
2023-02-24T16:19:37.425Z,100271.09
2023-02-24T16:22:05.417Z,100275.16
2023-02-24T16:24:33.488Z,100285.66
2023-02-24T16:27:03.480Z,100290.63
2023-02-24T16:29:31.668Z,100289.44
2023-02-24T16:32:00.045Z,100288.97
2023-02-24T16:34:28.182Z,100286.00
2023-02-24T16:36:56.875Z,100283.78
2023-02-24T16:39:25.376Z,100287.03
2023-02-24T16:41:53.745Z,100291.13
2023-02-24T16:44:23.772Z,100287.03
2023-02-24T16:46:53.006Z,100277.41
2023-02-24T16:49:22.385Z,100286.00
2023-02-24T16:51:50.394Z,100291.94
2023-02-24T16:54:21.954Z,100288.97
2023-02-24T16:56:50.307Z,100287.47
2023-02-24T16:59:18.311Z,100282.75
2023-02-24T17:01:47.834Z,100275.31
2023-02-24T17:04:16.065Z,100284.78
2023-02-24T17:06:44.030Z,100276.00
2023-02-24T17:09:15.493Z,100281.00
2023-02-24T17:11:44.483Z,100269.50
2023-02-24T17:14:17.102Z,100275.25
2023-02-24T17:16:45.145Z,100273.16
2023-02-24T17:19:15.079Z,100266.66
2023-02-24T17:21:45.425Z,100263.41
2023-02-24T17:24:16.880Z,100259.66
2023-02-24T17:26:45.099Z,100252.88
2023-02-24T17:29:14.762Z,100262.31
2023-02-24T17:31:43.368Z,100259.28
2023-02-24T17:34:11.883Z,100268.66
2023-02-24T17:36:41.256Z,100267.81
2023-02-24T17:39:09.270Z,100260.16
2023-02-24T17:41:37.251Z,100268.91
2023-02-24T17:44:05.283Z,100261.44
2023-02-24T17:46:33.384Z,100263.28
2023-02-24T17:49:03.324Z,100261.84
2023-02-24T17:51:31.605Z,100266.53
2023-02-24T17:54:01.108Z,100267.44
2023-02-24T17:56:29.215Z,100267.09
2023-02-24T17:58:59.064Z,100264.09
2023-02-24T18:01:27.112Z,100262.09
2023-02-24T18:03:57.516Z,100272.66
2023-02-24T18:06:25.991Z,100261.84
2023-02-24T18:08:54.743Z,100251.97
2023-02-24T18:11:24.161Z,100257.63
2023-02-24T18:13:52.846Z,100259.31
2023-02-24T18:16:21.333Z,100265.97
2023-02-24T18:18:50.086Z,100257.03
2023-02-24T18:21:18.278Z,100256.28
2023-02-24T18:23:49.210Z,100256.59
2023-02-24T18:26:17.709Z,100251.91
2023-02-24T18:28:47.557Z,100252.03
2023-02-24T18:31:17.758Z,100254.97
2023-02-24T18:33:46.789Z,100250.13
2023-02-24T18:36:15.508Z,100248.31
2023-02-24T18:38:44.310Z,100237.50
2023-02-24T18:41:14.276Z,100252.34
2023-02-24T18:43:42.886Z,100243.38
2023-02-24T18:46:15.000Z,100241.91
2023-02-24T18:48:44.610Z,100230.69
2023-02-24T18:51:13.718Z,100228.78
2023-02-24T18:53:41.824Z,100238.13
2023-02-24T18:56:12.060Z,100234.78
2023-02-24T18:58:40.884Z,100239.72
2023-02-24T19:01:15.482Z,100243.31
2023-02-24T19:03:43.922Z,100236.84
2023-02-24T19:06:13.832Z,100238.06
2023-02-24T19:08:42.860Z,100235.09
2023-02-24T19:11:11.900Z,100244.50
2023-02-24T19:13:40.120Z,100232.06
2023-02-24T19:16:08.911Z,100233.34
2023-02-24T19:18:38.868Z,100226.53
2023-02-24T19:21:08.241Z,100218.09
2023-02-24T19:23:37.253Z,100233.13
2023-02-24T19:26:05.407Z,100228.97
2023-02-24T19:28:33.385Z,100227.81
2023-02-24T19:31:01.726Z,100225.38
2023-02-24T19:33:29.671Z,100224.53
2023-02-24T19:36:01.373Z,100214.97
2023-02-24T19:38:29.365Z,100215.06
2023-02-24T19:40:59.336Z,100222.94
2023-02-24T19:43:27.323Z,100225.97
2023-02-24T19:45:55.432Z,100221.38
2023-02-24T19:48:23.507Z,100220.25
2023-02-24T19:50:51.524Z,100221.28
2023-02-24T19:53:20.894Z,100211.09
2023-02-24T19:55:50.812Z,100219.13
2023-02-24T19:58:19.400Z,100212.97
2023-02-24T20:00:48.385Z,100203.25
2023-02-24T20:03:16.616Z,100202.28
2023-02-24T20:05:44.682Z,100194.91
2023-02-24T20:08:12.727Z,100191.50
2023-02-24T20:10:42.481Z,100185.59
2023-02-24T20:13:10.564Z,100184.84
2023-02-24T20:15:38.591Z,100181.78
2023-02-24T20:18:08.923Z,100171.78
2023-02-24T20:20:37.423Z,100179.03
2023-02-24T20:23:05.880Z,100174.31
2023-02-24T20:25:33.892Z,100164.78
2023-02-24T20:28:04.429Z,100165.97
2023-02-24T20:30:32.442Z,100156.59
2023-02-24T20:33:00.539Z,100154.91
2023-02-24T20:35:28.678Z,100155.66
2023-02-24T20:37:56.698Z,100146.78
2023-02-24T20:40:24.749Z,100148.78
2023-02-24T20:42:52.796Z,100159.63
2023-02-24T20:45:22.180Z,100166.41
2023-02-24T20:47:50.261Z,100169.28
2023-02-24T20:50:18.539Z,100159.34
2023-02-24T20:52:46.770Z,100144.25
2023-02-24T20:55:14.865Z,100148.84
2023-02-24T20:57:42.896Z,100154.53
2023-02-24T21:00:12.283Z,100149.25
2023-02-24T21:02:42.375Z,100156.25
2023-02-24T21:05:11.200Z,100136.66
2023-02-24T21:07:40.193Z,100137.78
2023-02-24T21:10:08.616Z,100132.97
2023-02-24T21:12:36.682Z,100120.09
2023-02-24T21:15:05.022Z,100123.91
2023-02-24T21:17:34.439Z,100118.84
2023-02-24T21:20:04.123Z,100120.34
2023-02-24T21:22:32.375Z,100112.50
2023-02-24T21:25:00.701Z,100118.63
2023-02-24T21:27:28.616Z,100116.41
2023-02-24T21:29:56.590Z,100119.44
2023-02-24T21:32:24.742Z,100115.84
2023-02-24T21:34:52.802Z,100113.22
2023-02-24T21:37:22.249Z,100103.94
2023-02-24T21:39:50.412Z,100105.56
2023-02-24T21:42:18.379Z,100110.72
2023-02-24T21:44:46.382Z,100111.69
2023-02-24T21:47:14.312Z,100109.94
2023-02-24T21:49:42.269Z,100104.97
2023-02-24T21:52:11.690Z,100105.53
2023-02-24T21:54:42.380Z,100086.34
2023-02-24T21:57:10.460Z,100094.09
2023-02-24T21:59:38.450Z,100094.56
2023-02-24T22:02:06.719Z,100085.44
2023-02-24T22:04:35.148Z,100094.16
2023-02-24T22:07:03.065Z,100084.25
2023-02-24T22:09:31.056Z,100071.44
2023-02-24T22:12:00.672Z,100085.38
2023-02-24T22:14:28.703Z,100078.31
2023-02-24T22:16:56.609Z,100066.56
2023-02-24T22:19:24.680Z,100076.72
2023-02-24T22:21:52.822Z,100068.06
2023-02-24T22:24:22.004Z,100063.72
2023-02-24T22:26:51.222Z,100063.75
2023-02-24T22:29:20.976Z,100063.22
2023-02-24T22:31:49.846Z,100056.97
2023-02-24T22:34:18.397Z,100048.53
2023-02-24T22:36:46.410Z,100052.50
2023-02-24T22:39:16.708Z,100047.16
2023-02-24T22:41:45.653Z,100046.25
2023-02-24T22:44:14.444Z,100040.81
2023-02-24T22:46:43.935Z,100045.41
2023-02-24T22:49:12.235Z,100041.78
2023-02-24T22:51:40.617Z,100040.81
2023-02-24T22:54:08.701Z,100045.00
2023-02-24T22:56:38.011Z,100048.25
2023-02-24T22:59:05.989Z,100051.81
2023-02-24T23:01:36.463Z,100045.44
2023-02-24T23:04:08.062Z,100035.97
2023-02-24T23:06:37.280Z,100036.81
2023-02-24T23:09:06.506Z,100019.53
2023-02-24T23:11:37.671Z,100020.13
2023-02-24T23:14:10.115Z,100017.97
2023-02-24T23:16:39.077Z,100018.25
2023-02-24T23:19:13.070Z,100010.06
2023-02-24T23:21:43.163Z,100005.63
2023-02-24T23:24:14.010Z,100004.31
2023-02-24T23:26:44.918Z,100000.56
2023-02-24T23:29:15.719Z,99999.66
2023-02-24T23:31:44.361Z,99993.69
2023-02-24T23:34:14.543Z,99988.09
2023-02-24T23:36:44.812Z,99996.72
2023-02-24T23:39:15.663Z,100000.00
2023-02-24T23:41:43.893Z,99985.72
2023-02-24T23:44:12.644Z,99990.75
2023-02-24T23:46:41.907Z,99993.38
2023-02-24T23:49:10.000Z,99983.88
2023-02-24T23:51:48.021Z,99990.75
2023-02-24T23:54:17.985Z,99991.16
2023-02-24T23:56:46.838Z,99996.97
2023-02-24T23:59:15.437Z,99990.63
